sensor_id;sensor_type;location;lat;lon;timestamp;P1;durP1;ratioP1;P2;durP2;ratioP2
15490;SDS011;7847;50.930;4.336;2022-07-12T00:02:20;0.10;;;0.10;;
15490;SDS011;7847;50.930;4.336;2022-07-12T00:04:46;0.10;;;0.10;;
15490;SDS011;7847;50.930;4.336;2022-07-12T00:07:12;0.10;;;0.10;;
15490;SDS011;7847;50.930;4.336;2022-07-12T00:09:39;0.10;;;0.10;;
15490;SDS011;7847;50.930;4.336;2022-07-12T00:12:05;0.10;;;0.10;;
15490;SDS011;7847;50.930;4.336;2022-07-12T00:14:31;0.10;;;0.10;;
15490;SDS011;7847;50.930;4.336;2022-07-12T00:16:57;0.10;;;0.10;;
15490;SDS011;7847;50.930;4.336;2022-07-12T00:19:23;0.10;;;0.10;;
15490;SDS011;7847;50.930;4.336;2022-07-12T00:21:49;0.17;;;0.17;;
15490;SDS011;7847;50.930;4.336;2022-07-12T00:24:15;0.10;;;0.10;;
15490;SDS011;7847;50.930;4.336;2022-07-12T00:26:41;0.10;;;0.10;;
15490;SDS011;7847;50.930;4.336;2022-07-12T00:29:07;0.10;;;0.10;;
15490;SDS011;7847;50.930;4.336;2022-07-12T00:31:33;0.10;;;0.10;;
15490;SDS011;7847;50.930;4.336;2022-07-12T00:33:59;0.10;;;0.10;;
15490;SDS011;7847;50.930;4.336;2022-07-12T00:36:25;0.10;;;0.10;;
15490;SDS011;7847;50.930;4.336;2022-07-12T00:38:51;0.20;;;0.20;;
15490;SDS011;7847;50.930;4.336;2022-07-12T00:41:18;0.10;;;0.10;;
15490;SDS011;7847;50.930;4.336;2022-07-12T00:43:44;0.10;;;0.10;;
15490;SDS011;7847;50.930;4.336;2022-07-12T00:46:10;0.10;;;0.10;;
15490;SDS011;7847;50.930;4.336;2022-07-12T00:48:36;0.10;;;0.10;;
15490;SDS011;7847;50.930;4.336;2022-07-12T00:51:03;0.10;;;0.10;;
15490;SDS011;7847;50.930;4.336;2022-07-12T00:53:29;0.10;;;0.10;;
15490;SDS011;7847;50.930;4.336;2022-07-12T00:55:55;0.10;;;0.10;;
15490;SDS011;7847;50.930;4.336;2022-07-12T00:58:22;0.10;;;0.10;;
15490;SDS011;7847;50.930;4.336;2022-07-12T01:00:49;0.10;;;0.10;;
15490;SDS011;7847;50.930;4.336;2022-07-12T01:03:15;0.10;;;0.10;;
15490;SDS011;7847;50.930;4.336;2022-07-12T01:05:41;0.10;;;0.10;;
15490;SDS011;7847;50.930;4.336;2022-07-12T01:08:09;0.10;;;0.10;;
15490;SDS011;7847;50.930;4.336;2022-07-12T01:10:35;0.10;;;0.10;;
15490;SDS011;7847;50.930;4.336;2022-07-12T01:13:02;0.10;;;0.10;;
15490;SDS011;7847;50.930;4.336;2022-07-12T01:15:28;0.10;;;0.10;;
15490;SDS011;7847;50.930;4.336;2022-07-12T01:17:55;0.10;;;0.10;;
15490;SDS011;7847;50.930;4.336;2022-07-12T01:20:21;0.20;;;0.20;;
15490;SDS011;7847;50.930;4.336;2022-07-12T01:22:54;0.10;;;0.10;;
15490;SDS011;7847;50.930;4.336;2022-07-12T01:25:23;0.10;;;0.10;;
15490;SDS011;7847;50.930;4.336;2022-07-12T01:27:49;0.10;;;0.10;;
15490;SDS011;7847;50.930;4.336;2022-07-12T01:30:15;0.10;;;0.10;;
15490;SDS011;7847;50.930;4.336;2022-07-12T01:32:41;0.20;;;0.20;;
15490;SDS011;7847;50.930;4.336;2022-07-12T01:35:08;0.10;;;0.10;;
15490;SDS011;7847;50.930;4.336;2022-07-12T01:37:35;0.10;;;0.10;;
15490;SDS011;7847;50.930;4.336;2022-07-12T01:40:03;0.10;;;0.10;;
15490;SDS011;7847;50.930;4.336;2022-07-12T01:42:29;0.10;;;0.10;;
15490;SDS011;7847;50.930;4.336;2022-07-12T01:44:56;0.10;;;0.10;;
15490;SDS011;7847;50.930;4.336;2022-07-12T01:47:27;0.10;;;0.10;;
15490;SDS011;7847;50.930;4.336;2022-07-12T01:49:53;0.10;;;0.10;;
15490;SDS011;7847;50.930;4.336;2022-07-12T01:52:19;0.10;;;0.10;;
15490;SDS011;7847;50.930;4.336;2022-07-12T01:54:45;0.10;;;0.10;;
15490;SDS011;7847;50.930;4.336;2022-07-12T01:57:11;0.10;;;0.10;;
15490;SDS011;7847;50.930;4.336;2022-07-12T01:59:38;0.15;;;0.15;;
15490;SDS011;7847;50.930;4.336;2022-07-12T02:02:04;0.10;;;0.10;;
15490;SDS011;7847;50.930;4.336;2022-07-12T02:04:30;0.10;;;0.10;;
15490;SDS011;7847;50.930;4.336;2022-07-12T02:06:57;0.10;;;0.10;;
15490;SDS011;7847;50.930;4.336;2022-07-12T02:09:23;0.10;;;0.10;;
15490;SDS011;7847;50.930;4.336;2022-07-12T02:11:49;0.10;;;0.10;;
15490;SDS011;7847;50.930;4.336;2022-07-12T02:14:16;0.10;;;0.10;;
15490;SDS011;7847;50.930;4.336;2022-07-12T02:16:42;0.10;;;0.10;;
15490;SDS011;7847;50.930;4.336;2022-07-12T02:19:09;0.10;;;0.10;;
15490;SDS011;7847;50.930;4.336;2022-07-12T02:21:35;0.10;;;0.10;;
15490;SDS011;7847;50.930;4.336;2022-07-12T02:24:01;0.20;;;0.20;;
15490;SDS011;7847;50.930;4.336;2022-07-12T02:26:28;0.20;;;0.20;;
15490;SDS011;7847;50.930;4.336;2022-07-12T02:28:54;0.20;;;0.20;;
15490;SDS011;7847;50.930;4.336;2022-07-12T02:31:20;0.20;;;0.20;;
15490;SDS011;7847;50.930;4.336;2022-07-12T02:33:46;0.20;;;0.20;;
15490;SDS011;7847;50.930;4.336;2022-07-12T02:36:12;0.10;;;0.10;;
15490;SDS011;7847;50.930;4.336;2022-07-12T02:38:38;0.20;;;0.20;;
15490;SDS011;7847;50.930;4.336;2022-07-12T02:41:04;0.20;;;0.20;;
15490;SDS011;7847;50.930;4.336;2022-07-12T02:43:30;0.20;;;0.20;;
15490;SDS011;7847;50.930;4.336;2022-07-12T02:46:07;0.20;;;0.20;;
15490;SDS011;7847;50.930;4.336;2022-07-12T02:48:34;0.10;;;0.10;;
15490;SDS011;7847;50.930;4.336;2022-07-12T02:51:00;0.20;;;0.20;;
15490;SDS011;7847;50.930;4.336;2022-07-12T02:53:26;0.20;;;0.20;;
15490;SDS011;7847;50.930;4.336;2022-07-12T02:55:52;0.20;;;0.20;;
15490;SDS011;7847;50.930;4.336;2022-07-12T02:58:19;0.20;;;0.20;;
15490;SDS011;7847;50.930;4.336;2022-07-12T03:00:45;0.20;;;0.20;;
15490;SDS011;7847;50.930;4.336;2022-07-12T03:03:11;0.20;;;0.20;;
15490;SDS011;7847;50.930;4.336;2022-07-12T03:05:38;0.20;;;0.20;;
15490;SDS011;7847;50.930;4.336;2022-07-12T03:08:04;0.20;;;0.20;;
15490;SDS011;7847;50.930;4.336;2022-07-12T03:10:31;0.20;;;0.20;;
15490;SDS011;7847;50.930;4.336;2022-07-12T03:12:57;0.20;;;0.20;;
15490;SDS011;7847;50.930;4.336;2022-07-12T03:15:23;0.20;;;0.20;;
15490;SDS011;7847;50.930;4.336;2022-07-12T03:17:49;0.20;;;0.20;;
15490;SDS011;7847;50.930;4.336;2022-07-12T03:20:15;0.20;;;0.20;;
15490;SDS011;7847;50.930;4.336;2022-07-12T03:22:41;0.20;;;0.20;;
15490;SDS011;7847;50.930;4.336;2022-07-12T03:25:08;0.20;;;0.20;;
15490;SDS011;7847;50.930;4.336;2022-07-12T03:27:35;0.13;;;0.13;;
15490;SDS011;7847;50.930;4.336;2022-07-12T03:30:01;0.20;;;0.20;;
15490;SDS011;7847;50.930;4.336;2022-07-12T03:32:27;0.20;;;0.20;;
15490;SDS011;7847;50.930;4.336;2022-07-12T03:34:53;0.17;;;0.17;;
15490;SDS011;7847;50.930;4.336;2022-07-12T03:37:19;0.10;;;0.10;;
15490;SDS011;7847;50.930;4.336;2022-07-12T03:39:45;0.20;;;0.20;;
15490;SDS011;7847;50.930;4.336;2022-07-12T03:42:11;0.20;;;0.20;;
15490;SDS011;7847;50.930;4.336;2022-07-12T03:44:37;0.20;;;0.20;;
15490;SDS011;7847;50.930;4.336;2022-07-12T03:47:04;0.20;;;0.20;;
15490;SDS011;7847;50.930;4.336;2022-07-12T03:49:30;0.20;;;0.20;;
15490;SDS011;7847;50.930;4.336;2022-07-12T03:51:56;0.20;;;0.20;;
15490;SDS011;7847;50.930;4.336;2022-07-12T03:54:22;0.10;;;0.10;;
15490;SDS011;7847;50.930;4.336;2022-07-12T03:56:48;0.20;;;0.20;;
15490;SDS011;7847;50.930;4.336;2022-07-12T03:59:33;0.20;;;0.20;;
15490;SDS011;7847;50.930;4.336;2022-07-12T04:01:59;0.20;;;0.20;;
15490;SDS011;7847;50.930;4.336;2022-07-12T04:04:27;0.20;;;0.20;;
15490;SDS011;7847;50.930;4.336;2022-07-12T04:06:53;0.20;;;0.20;;
15490;SDS011;7847;50.930;4.336;2022-07-12T04:09:19;0.20;;;0.20;;
15490;SDS011;7847;50.930;4.336;2022-07-12T04:11:45;0.20;;;0.20;;
15490;SDS011;7847;50.930;4.336;2022-07-12T04:14:11;0.20;;;0.20;;
15490;SDS011;7847;50.930;4.336;2022-07-12T04:16:38;0.20;;;0.20;;
15490;SDS011;7847;50.930;4.336;2022-07-12T04:19:04;0.20;;;0.20;;
15490;SDS011;7847;50.930;4.336;2022-07-12T04:21:33;0.20;;;0.20;;
15490;SDS011;7847;50.930;4.336;2022-07-12T04:23:59;0.20;;;0.20;;
15490;SDS011;7847;50.930;4.336;2022-07-12T04:26:25;0.20;;;0.20;;
15490;SDS011;7847;50.930;4.336;2022-07-12T04:28:51;0.20;;;0.20;;
15490;SDS011;7847;50.930;4.336;2022-07-12T04:31:17;0.10;;;0.10;;
15490;SDS011;7847;50.930;4.336;2022-07-12T04:33:43;0.20;;;0.20;;
15490;SDS011;7847;50.930;4.336;2022-07-12T04:36:10;0.10;;;0.10;;
15490;SDS011;7847;50.930;4.336;2022-07-12T04:38:36;0.15;;;0.15;;
15490;SDS011;7847;50.930;4.336;2022-07-12T04:41:02;0.20;;;0.20;;
15490;SDS011;7847;50.930;4.336;2022-07-12T04:43:28;0.17;;;0.17;;
15490;SDS011;7847;50.930;4.336;2022-07-12T04:45:54;0.17;;;0.17;;
15490;SDS011;7847;50.930;4.336;2022-07-12T04:48:20;0.20;;;0.20;;
15490;SDS011;7847;50.930;4.336;2022-07-12T04:50:46;0.20;;;0.20;;
15490;SDS011;7847;50.930;4.336;2022-07-12T04:53:12;0.10;;;0.10;;
15490;SDS011;7847;50.930;4.336;2022-07-12T04:55:38;0.10;;;0.10;;
15490;SDS011;7847;50.930;4.336;2022-07-12T04:58:04;0.10;;;0.10;;
15490;SDS011;7847;50.930;4.336;2022-07-12T05:00:30;0.10;;;0.10;;
15490;SDS011;7847;50.930;4.336;2022-07-12T05:02:56;0.10;;;0.10;;
15490;SDS011;7847;50.930;4.336;2022-07-12T05:05:22;0.10;;;0.10;;
15490;SDS011;7847;50.930;4.336;2022-07-12T05:07:48;0.20;;;0.20;;
15490;SDS011;7847;50.930;4.336;2022-07-12T05:10:15;0.10;;;0.10;;
15490;SDS011;7847;50.930;4.336;2022-07-12T05:12:41;0.10;;;0.10;;
15490;SDS011;7847;50.930;4.336;2022-07-12T05:15:07;0.10;;;0.10;;
15490;SDS011;7847;50.930;4.336;2022-07-12T05:17:33;0.10;;;0.10;;
15490;SDS011;7847;50.930;4.336;2022-07-12T05:19:59;0.10;;;0.10;;
15490;SDS011;7847;50.930;4.336;2022-07-12T05:22:25;0.10;;;0.10;;
15490;SDS011;7847;50.930;4.336;2022-07-12T05:24:51;0.17;;;0.17;;
15490;SDS011;7847;50.930;4.336;2022-07-12T05:27:17;0.10;;;0.10;;
15490;SDS011;7847;50.930;4.336;2022-07-12T05:29:43;0.10;;;0.10;;
15490;SDS011;7847;50.930;4.336;2022-07-12T05:32:09;0.10;;;0.10;;
15490;SDS011;7847;50.930;4.336;2022-07-12T05:34:36;0.10;;;0.10;;
15490;SDS011;7847;50.930;4.336;2022-07-12T05:37:03;0.00;;;0.00;;
15490;SDS011;7847;50.930;4.336;2022-07-12T05:39:29;0.10;;;0.10;;
15490;SDS011;7847;50.930;4.336;2022-07-12T05:41:55;0.10;;;0.10;;
15490;SDS011;7847;50.930;4.336;2022-07-12T05:44:21;0.10;;;0.10;;
15490;SDS011;7847;50.930;4.336;2022-07-12T05:46:48;0.10;;;0.10;;
15490;SDS011;7847;50.930;4.336;2022-07-12T05:49:14;0.10;;;0.10;;
15490;SDS011;7847;50.930;4.336;2022-07-12T05:51:40;0.10;;;0.10;;
15490;SDS011;7847;50.930;4.336;2022-07-12T05:54:25;0.10;;;0.10;;
15490;SDS011;7847;50.930;4.336;2022-07-12T05:56:51;0.10;;;0.10;;
15490;SDS011;7847;50.930;4.336;2022-07-12T05:59:17;0.10;;;0.10;;
15490;SDS011;7847;50.930;4.336;2022-07-12T06:01:43;0.10;;;0.10;;
15490;SDS011;7847;50.930;4.336;2022-07-12T06:04:09;0.10;;;0.10;;
15490;SDS011;7847;50.930;4.336;2022-07-12T06:06:35;0.10;;;0.10;;
15490;SDS011;7847;50.930;4.336;2022-07-12T06:09:02;0.10;;;0.10;;
15490;SDS011;7847;50.930;4.336;2022-07-12T06:11:28;0.10;;;0.10;;
15490;SDS011;7847;50.930;4.336;2022-07-12T06:13:55;0.10;;;0.10;;
15490;SDS011;7847;50.930;4.336;2022-07-12T06:16:21;0.10;;;0.10;;
15490;SDS011;7847;50.930;4.336;2022-07-12T06:18:47;0.10;;;0.10;;
15490;SDS011;7847;50.930;4.336;2022-07-12T06:21:13;0.10;;;0.10;;
15490;SDS011;7847;50.930;4.336;2022-07-12T06:23:39;0.03;;;0.03;;
15490;SDS011;7847;50.930;4.336;2022-07-12T06:26:05;0.10;;;0.10;;
15490;SDS011;7847;50.930;4.336;2022-07-12T06:28:32;0.00;;;0.00;;
15490;SDS011;7847;50.930;4.336;2022-07-12T06:30:58;0.10;;;0.10;;
15490;SDS011;7847;50.930;4.336;2022-07-12T06:33:24;0.10;;;0.10;;
15490;SDS011;7847;50.930;4.336;2022-07-12T06:35:50;0.10;;;0.10;;
15490;SDS011;7847;50.930;4.336;2022-07-12T06:38:16;0.10;;;0.10;;
15490;SDS011;7847;50.930;4.336;2022-07-12T06:40:42;0.00;;;0.00;;
15490;SDS011;7847;50.930;4.336;2022-07-12T06:43:09;0.10;;;0.10;;
15490;SDS011;7847;50.930;4.336;2022-07-12T06:45:35;0.10;;;0.10;;
15490;SDS011;7847;50.930;4.336;2022-07-12T06:48:02;0.10;;;0.10;;
15490;SDS011;7847;50.930;4.336;2022-07-12T06:50:28;0.10;;;0.10;;
15490;SDS011;7847;50.930;4.336;2022-07-12T06:52:54;0.10;;;0.10;;
15490;SDS011;7847;50.930;4.336;2022-07-12T06:55:20;0.10;;;0.10;;
15490;SDS011;7847;50.930;4.336;2022-07-12T06:57:46;0.00;;;0.00;;
15490;SDS011;7847;50.930;4.336;2022-07-12T07:00:12;0.05;;;0.05;;
15490;SDS011;7847;50.930;4.336;2022-07-12T07:02:38;0.00;;;0.00;;
15490;SDS011;7847;50.930;4.336;2022-07-12T07:05:05;0.10;;;0.10;;
15490;SDS011;7847;50.930;4.336;2022-07-12T07:07:31;0.10;;;0.10;;
15490;SDS011;7847;50.930;4.336;2022-07-12T07:09:58;0.10;;;0.10;;
15490;SDS011;7847;50.930;4.336;2022-07-12T07:12:24;0.10;;;0.10;;
15490;SDS011;7847;50.930;4.336;2022-07-12T07:14:50;0.00;;;0.00;;
15490;SDS011;7847;50.930;4.336;2022-07-12T07:17:16;0.00;;;0.00;;
15490;SDS011;7847;50.930;4.336;2022-07-12T07:19:44;0.10;;;0.10;;
15490;SDS011;7847;50.930;4.336;2022-07-12T07:22:11;0.00;;;0.00;;
15490;SDS011;7847;50.930;4.336;2022-07-12T07:24:37;0.10;;;0.10;;
15490;SDS011;7847;50.930;4.336;2022-07-12T07:27:03;0.10;;;0.10;;
15490;SDS011;7847;50.930;4.336;2022-07-12T07:29:29;0.10;;;0.10;;
15490;SDS011;7847;50.930;4.336;2022-07-12T07:32:14;0.00;;;0.00;;
15490;SDS011;7847;50.930;4.336;2022-07-12T07:34:40;0.08;;;0.08;;
15490;SDS011;7847;50.930;4.336;2022-07-12T07:37:07;0.05;;;0.05;;
15490;SDS011;7847;50.930;4.336;2022-07-12T07:39:33;0.00;;;0.00;;
15490;SDS011;7847;50.930;4.336;2022-07-12T07:41:59;0.10;;;0.10;;
15490;SDS011;7847;50.930;4.336;2022-07-12T07:44:25;0.00;;;0.00;;
15490;SDS011;7847;50.930;4.336;2022-07-12T07:46:52;0.00;;;0.00;;
15490;SDS011;7847;50.930;4.336;2022-07-12T07:49:18;0.03;;;0.03;;
15490;SDS011;7847;50.930;4.336;2022-07-12T07:51:44;0.00;;;0.00;;
15490;SDS011;7847;50.930;4.336;2022-07-12T07:54:10;0.00;;;0.00;;
15490;SDS011;7847;50.930;4.336;2022-07-12T07:56:36;0.00;;;0.00;;
15490;SDS011;7847;50.930;4.336;2022-07-12T07:59:02;0.00;;;0.00;;
15490;SDS011;7847;50.930;4.336;2022-07-12T08:01:29;0.05;;;0.05;;
15490;SDS011;7847;50.930;4.336;2022-07-12T08:04:16;0.00;;;0.00;;
15490;SDS011;7847;50.930;4.336;2022-07-12T08:06:43;0.00;;;0.00;;
15490;SDS011;7847;50.930;4.336;2022-07-12T08:09:09;0.00;;;0.00;;
15490;SDS011;7847;50.930;4.336;2022-07-12T08:11:36;0.00;;;0.00;;
15490;SDS011;7847;50.930;4.336;2022-07-12T08:14:02;0.00;;;0.00;;
15490;SDS011;7847;50.930;4.336;2022-07-12T08:16:29;0.10;;;0.10;;
15490;SDS011;7847;50.930;4.336;2022-07-12T08:18:55;0.10;;;0.10;;
15490;SDS011;7847;50.930;4.336;2022-07-12T08:21:21;0.10;;;0.10;;
15490;SDS011;7847;50.930;4.336;2022-07-12T08:23:48;0.00;;;0.00;;
15490;SDS011;7847;50.930;4.336;2022-07-12T08:26:14;0.00;;;0.00;;
15490;SDS011;7847;50.930;4.336;2022-07-12T08:28:40;0.00;;;0.00;;
15490;SDS011;7847;50.930;4.336;2022-07-12T08:31:06;0.00;;;0.00;;
15490;SDS011;7847;50.930;4.336;2022-07-12T08:33:32;0.00;;;0.00;;
15490;SDS011;7847;50.930;4.336;2022-07-12T08:35:59;0.00;;;0.00;;
15490;SDS011;7847;50.930;4.336;2022-07-12T08:38:25;0.00;;;0.00;;
15490;SDS011;7847;50.930;4.336;2022-07-12T08:40:51;0.00;;;0.00;;
15490;SDS011;7847;50.930;4.336;2022-07-12T08:43:17;0.00;;;0.00;;
15490;SDS011;7847;50.930;4.336;2022-07-12T08:45:43;0.00;;;0.00;;
15490;SDS011;7847;50.930;4.336;2022-07-12T08:48:09;0.00;;;0.00;;
15490;SDS011;7847;50.930;4.336;2022-07-12T08:50:35;0.03;;;0.03;;
15490;SDS011;7847;50.930;4.336;2022-07-12T08:53:01;0.00;;;0.00;;
15490;SDS011;7847;50.930;4.336;2022-07-12T08:55:28;0.00;;;0.00;;
15490;SDS011;7847;50.930;4.336;2022-07-12T08:57:56;0.00;;;0.00;;
15490;SDS011;7847;50.930;4.336;2022-07-12T09:00:23;0.00;;;0.00;;
15490;SDS011;7847;50.930;4.336;2022-07-12T09:02:53;0.00;;;0.00;;
15490;SDS011;7847;50.930;4.336;2022-07-12T09:05:20;0.00;;;0.00;;
15490;SDS011;7847;50.930;4.336;2022-07-12T09:07:47;0.00;;;0.00;;
15490;SDS011;7847;50.930;4.336;2022-07-12T09:10:14;0.00;;;0.00;;
15490;SDS011;7847;50.930;4.336;2022-07-12T09:12:41;0.00;;;0.00;;
15490;SDS011;7847;50.930;4.336;2022-07-12T09:15:11;0.00;;;0.00;;
15490;SDS011;7847;50.930;4.336;2022-07-12T09:17:37;0.00;;;0.00;;
15490;SDS011;7847;50.930;4.336;2022-07-12T09:20:03;0.00;;;0.00;;
15490;SDS011;7847;50.930;4.336;2022-07-12T09:22:30;0.03;;;0.03;;
15490;SDS011;7847;50.930;4.336;2022-07-12T09:24:56;0.00;;;0.00;;
15490;SDS011;7847;50.930;4.336;2022-07-12T09:27:25;0.00;;;0.00;;
15490;SDS011;7847;50.930;4.336;2022-07-12T09:29:51;0.00;;;0.00;;
15490;SDS011;7847;50.930;4.336;2022-07-12T09:32:18;0.00;;;0.00;;
15490;SDS011;7847;50.930;4.336;2022-07-12T09:35:03;0.00;;;0.00;;
15490;SDS011;7847;50.930;4.336;2022-07-12T09:37:48;0.00;;;0.00;;
15490;SDS011;7847;50.930;4.336;2022-07-12T09:40:14;0.00;;;0.00;;
15490;SDS011;7847;50.930;4.336;2022-07-12T09:42:40;0.00;;;0.00;;
15490;SDS011;7847;50.930;4.336;2022-07-12T09:45:09;0.00;;;0.00;;
15490;SDS011;7847;50.930;4.336;2022-07-12T09:47:35;0.00;;;0.00;;
15490;SDS011;7847;50.930;4.336;2022-07-12T09:50:03;0.00;;;0.00;;
15490;SDS011;7847;50.930;4.336;2022-07-12T09:52:29;0.00;;;0.00;;
15490;SDS011;7847;50.930;4.336;2022-07-12T09:54:58;0.00;;;0.00;;
15490;SDS011;7847;50.930;4.336;2022-07-12T09:59:53;0.00;;;0.00;;
15490;SDS011;7847;50.930;4.336;2022-07-12T10:02:21;0.00;;;0.00;;
15490;SDS011;7847;50.930;4.336;2022-07-12T10:04:47;0.00;;;0.00;;
15490;SDS011;7847;50.930;4.336;2022-07-12T10:07:14;0.00;;;0.00;;
15490;SDS011;7847;50.930;4.336;2022-07-12T10:09:41;0.00;;;0.00;;
15490;SDS011;7847;50.930;4.336;2022-07-12T10:12:09;0.00;;;0.00;;
15490;SDS011;7847;50.930;4.336;2022-07-12T10:14:36;0.00;;;0.00;;
15490;SDS011;7847;50.930;4.336;2022-07-12T10:17:02;0.00;;;0.00;;
15490;SDS011;7847;50.930;4.336;2022-07-12T10:19:32;0.00;;;0.00;;
15490;SDS011;7847;50.930;4.336;2022-07-12T10:22:01;0.00;;;0.00;;
15490;SDS011;7847;50.930;4.336;2022-07-12T10:26:57;0.00;;;0.00;;
15490;SDS011;7847;50.930;4.336;2022-07-12T10:29:23;0.00;;;0.00;;
15490;SDS011;7847;50.930;4.336;2022-07-12T10:31:50;0.00;;;0.00;;
15490;SDS011;7847;50.930;4.336;2022-07-12T10:34:20;0.00;;;0.00;;
15490;SDS011;7847;50.930;4.336;2022-07-12T10:39:26;0.00;;;0.00;;
15490;SDS011;7847;50.930;4.336;2022-07-12T10:44:34;0.00;;;0.00;;
15490;SDS011;7847;50.930;4.336;2022-07-12T10:47:00;0.00;;;0.00;;
15490;SDS011;7847;50.930;4.336;2022-07-12T10:49:27;0.00;;;0.00;;
15490;SDS011;7847;50.930;4.336;2022-07-12T10:54:38;0.00;;;0.00;;
15490;SDS011;7847;50.930;4.336;2022-07-12T10:57:05;0.00;;;0.00;;
15490;SDS011;7847;50.930;4.336;2022-07-12T10:59:35;0.00;;;0.00;;
15490;SDS011;7847;50.930;4.336;2022-07-12T11:02:01;0.00;;;0.00;;
15490;SDS011;7847;50.930;4.336;2022-07-12T11:04:27;0.00;;;0.00;;
15490;SDS011;7847;50.930;4.336;2022-07-12T11:06:54;0.00;;;0.00;;
15490;SDS011;7847;50.930;4.336;2022-07-12T11:09:22;0.00;;;0.00;;
15490;SDS011;7847;50.930;4.336;2022-07-12T11:11:49;0.00;;;0.00;;
15490;SDS011;7847;50.930;4.336;2022-07-12T11:14:22;0.00;;;0.00;;
15490;SDS011;7847;50.930;4.336;2022-07-12T11:16:49;0.00;;;0.00;;
15490;SDS011;7847;50.930;4.336;2022-07-12T11:19:23;0.00;;;0.00;;
15490;SDS011;7847;50.930;4.336;2022-07-12T11:21:49;0.00;;;0.00;;
15490;SDS011;7847;50.930;4.336;2022-07-12T11:24:30;0.00;;;0.00;;
15490;SDS011;7847;50.930;4.336;2022-07-12T11:26:57;0.00;;;0.00;;
15490;SDS011;7847;50.930;4.336;2022-07-12T11:29:24;0.00;;;0.00;;
15490;SDS011;7847;50.930;4.336;2022-07-12T11:31:59;0.00;;;0.00;;
15490;SDS011;7847;50.930;4.336;2022-07-12T11:34:26;0.00;;;0.00;;
15490;SDS011;7847;50.930;4.336;2022-07-12T11:36:56;0.00;;;0.00;;
15490;SDS011;7847;50.930;4.336;2022-07-12T11:39:35;0.00;;;0.00;;
15490;SDS011;7847;50.930;4.336;2022-07-12T11:42:01;0.00;;;0.00;;
15490;SDS011;7847;50.930;4.336;2022-07-12T11:44:43;0.00;;;0.00;;
15490;SDS011;7847;50.930;4.336;2022-07-12T11:47:10;0.00;;;0.00;;
15490;SDS011;7847;50.930;4.336;2022-07-12T11:49:36;0.00;;;0.00;;
15490;SDS011;7847;50.930;4.336;2022-07-12T11:52:04;0.00;;;0.00;;
15490;SDS011;7847;50.930;4.336;2022-07-12T11:54:30;0.00;;;0.00;;
15490;SDS011;7847;50.930;4.336;2022-07-12T11:57:19;0.00;;;0.00;;
15490;SDS011;7847;50.930;4.336;2022-07-12T11:59:43;0.00;;;0.00;;
15490;SDS011;7847;50.930;4.336;2022-07-12T12:02:13;0.00;;;0.00;;
15490;SDS011;7847;50.930;4.336;2022-07-12T12:04:49;0.00;;;0.00;;
15490;SDS011;7847;50.930;4.336;2022-07-12T12:07:16;0.00;;;0.00;;
15490;SDS011;7847;50.930;4.336;2022-07-12T12:09:58;0.00;;;0.00;;
15490;SDS011;7847;50.930;4.336;2022-07-12T12:12:24;0.00;;;0.00;;
15490;SDS011;7847;50.930;4.336;2022-07-12T12:14:51;0.00;;;0.00;;
15490;SDS011;7847;50.930;4.336;2022-07-12T12:17:17;0.00;;;0.00;;
15490;SDS011;7847;50.930;4.336;2022-07-12T12:19:43;0.00;;;0.00;;
15490;SDS011;7847;50.930;4.336;2022-07-12T12:25:14;0.00;;;0.00;;
15490;SDS011;7847;50.930;4.336;2022-07-12T12:27:41;0.00;;;0.00;;
15490;SDS011;7847;50.930;4.336;2022-07-12T12:30:09;0.00;;;0.00;;
15490;SDS011;7847;50.930;4.336;2022-07-12T12:35:11;0.00;;;0.00;;
15490;SDS011;7847;50.930;4.336;2022-07-12T12:37:37;0.00;;;0.00;;
15490;SDS011;7847;50.930;4.336;2022-07-12T12:40:03;0.00;;;0.00;;
15490;SDS011;7847;50.930;4.336;2022-07-12T12:42:30;0.00;;;0.00;;
15490;SDS011;7847;50.930;4.336;2022-07-12T12:44:56;0.00;;;0.00;;
15490;SDS011;7847;50.930;4.336;2022-07-12T12:47:22;0.00;;;0.00;;
15490;SDS011;7847;50.930;4.336;2022-07-12T12:49:57;0.00;;;0.00;;
15490;SDS011;7847;50.930;4.336;2022-07-12T12:52:28;0.00;;;0.00;;
15490;SDS011;7847;50.930;4.336;2022-07-12T12:54:55;0.00;;;0.00;;
15490;SDS011;7847;50.930;4.336;2022-07-12T12:57:21;0.00;;;0.00;;
15490;SDS011;7847;50.930;4.336;2022-07-12T12:59:49;0.00;;;0.00;;
15490;SDS011;7847;50.930;4.336;2022-07-12T13:02:15;0.00;;;0.00;;
15490;SDS011;7847;50.930;4.336;2022-07-12T13:04:41;0.00;;;0.00;;
15490;SDS011;7847;50.930;4.336;2022-07-12T13:07:07;0.00;;;0.00;;
15490;SDS011;7847;50.930;4.336;2022-07-12T13:09:33;0.00;;;0.00;;
15490;SDS011;7847;50.930;4.336;2022-07-12T13:11:59;0.00;;;0.00;;
15490;SDS011;7847;50.930;4.336;2022-07-12T13:14:26;0.00;;;0.00;;
15490;SDS011;7847;50.930;4.336;2022-07-12T13:16:52;0.00;;;0.00;;
15490;SDS011;7847;50.930;4.336;2022-07-12T13:19:18;0.00;;;0.00;;
15490;SDS011;7847;50.930;4.336;2022-07-12T13:21:46;0.00;;;0.00;;
15490;SDS011;7847;50.930;4.336;2022-07-12T13:24:12;0.00;;;0.00;;
15490;SDS011;7847;50.930;4.336;2022-07-12T13:26:38;0.00;;;0.00;;
15490;SDS011;7847;50.930;4.336;2022-07-12T13:29:04;0.00;;;0.00;;
15490;SDS011;7847;50.930;4.336;2022-07-12T13:31:30;0.00;;;0.00;;
15490;SDS011;7847;50.930;4.336;2022-07-12T13:33:56;0.00;;;0.00;;
15490;SDS011;7847;50.930;4.336;2022-07-12T13:36:22;0.00;;;0.00;;
15490;SDS011;7847;50.930;4.336;2022-07-12T13:38:48;0.00;;;0.00;;
15490;SDS011;7847;50.930;4.336;2022-07-12T13:41:14;0.00;;;0.00;;
15490;SDS011;7847;50.930;4.336;2022-07-12T13:43:41;0.00;;;0.00;;
15490;SDS011;7847;50.930;4.336;2022-07-12T13:46:07;0.00;;;0.00;;
15490;SDS011;7847;50.930;4.336;2022-07-12T13:48:33;0.00;;;0.00;;
15490;SDS011;7847;50.930;4.336;2022-07-12T13:50:59;0.00;;;0.00;;
15490;SDS011;7847;50.930;4.336;2022-07-12T13:53:25;0.00;;;0.00;;
15490;SDS011;7847;50.930;4.336;2022-07-12T13:55:51;0.00;;;0.00;;
15490;SDS011;7847;50.930;4.336;2022-07-12T13:58:17;0.00;;;0.00;;
15490;SDS011;7847;50.930;4.336;2022-07-12T14:00:44;0.00;;;0.00;;
15490;SDS011;7847;50.930;4.336;2022-07-12T14:03:10;0.00;;;0.00;;
15490;SDS011;7847;50.930;4.336;2022-07-12T14:05:36;0.00;;;0.00;;
15490;SDS011;7847;50.930;4.336;2022-07-12T14:08:02;0.00;;;0.00;;
15490;SDS011;7847;50.930;4.336;2022-07-12T14:10:28;0.00;;;0.00;;
15490;SDS011;7847;50.930;4.336;2022-07-12T14:12:55;0.00;;;0.00;;
15490;SDS011;7847;50.930;4.336;2022-07-12T14:15:21;0.00;;;0.00;;
15490;SDS011;7847;50.930;4.336;2022-07-12T14:18:05;0.00;;;0.00;;
15490;SDS011;7847;50.930;4.336;2022-07-12T14:20:31;0.00;;;0.00;;
15490;SDS011;7847;50.930;4.336;2022-07-12T14:22:58;0.00;;;0.00;;
15490;SDS011;7847;50.930;4.336;2022-07-12T14:25:24;0.00;;;0.00;;
15490;SDS011;7847;50.930;4.336;2022-07-12T14:27:50;0.00;;;0.00;;
15490;SDS011;7847;50.930;4.336;2022-07-12T14:30:16;0.00;;;0.00;;
15490;SDS011;7847;50.930;4.336;2022-07-12T14:32:42;0.00;;;0.00;;
15490;SDS011;7847;50.930;4.336;2022-07-12T14:35:09;0.00;;;0.00;;
15490;SDS011;7847;50.930;4.336;2022-07-12T14:37:35;0.00;;;0.00;;
15490;SDS011;7847;50.930;4.336;2022-07-12T14:40:05;0.00;;;0.00;;
15490;SDS011;7847;50.930;4.336;2022-07-12T14:42:32;0.00;;;0.00;;
15490;SDS011;7847;50.930;4.336;2022-07-12T14:44:58;0.00;;;0.00;;
15490;SDS011;7847;50.930;4.336;2022-07-12T14:47:24;0.00;;;0.00;;
15490;SDS011;7847;50.930;4.336;2022-07-12T14:49:50;0.00;;;0.00;;
15490;SDS011;7847;50.930;4.336;2022-07-12T14:52:18;0.00;;;0.00;;
15490;SDS011;7847;50.930;4.336;2022-07-12T14:54:45;0.00;;;0.00;;
15490;SDS011;7847;50.930;4.336;2022-07-12T14:57:11;0.00;;;0.00;;
15490;SDS011;7847;50.930;4.336;2022-07-12T14:59:37;0.00;;;0.00;;
15490;SDS011;7847;50.930;4.336;2022-07-12T15:02:03;0.00;;;0.00;;
15490;SDS011;7847;50.930;4.336;2022-07-12T15:04:29;0.00;;;0.00;;
15490;SDS011;7847;50.930;4.336;2022-07-12T15:06:55;0.00;;;0.00;;
15490;SDS011;7847;50.930;4.336;2022-07-12T15:09:21;0.00;;;0.00;;
15490;SDS011;7847;50.930;4.336;2022-07-12T15:11:48;0.00;;;0.00;;
15490;SDS011;7847;50.930;4.336;2022-07-12T15:14:14;0.00;;;0.00;;
15490;SDS011;7847;50.930;4.336;2022-07-12T15:16:40;0.00;;;0.00;;
15490;SDS011;7847;50.930;4.336;2022-07-12T15:19:06;0.00;;;0.00;;